Time;durP1;ratioP1;P1;durP2;ratioP2;P2;SDS_P1;SDS_P2;PMS_P1;PMS_P2;Temp;Humidity;BMP_temperature;BMP_pressure;BME280_temperature;BME280_humidity;BME280_pressure;Samples;Min_cycle;Max_cycle;Signal;HPM_P1;HPM_P2
2023/09/19 00:02:36;;;;;;;;;;;;;;;;;;6357179;27;20817;-74
2023/09/19 00:05:38;;;;;;;;;;;;;;;;;;6355786;27;19920;-71
2023/09/19 00:08:38;;;;;;;;;;;;;;;;;;6357209;27;20356;-72
2023/09/19 00:11:38;;;;;;;;;;;;;;;;;;6356918;27;20380;-73
2023/09/19 00:14:38;;;;;;;;;;;;;;;;;;6359438;27;20573;-72
2023/09/19 00:17:40;;;;;;;;;;;;;;;;;;6355106;27;19975;-71
2023/09/19 00:20:41;;;;;;;;;;;;;;;;;;6352746;27;19915;-72
2023/09/19 00:23:42;;;;;;;;;;;;;;;;;;6350757;27;20455;-73
2023/09/19 00:26:42;;;;;;;;;;;;;;;;;;6345847;27;19922;-72
2023/09/19 00:29:43;;;;;;;;;;;;;;;;;;6356984;27;19920;-72
2023/09/19 00:32:43;;;;;;;;;;;;;;;;;;6339133;27;19926;-72
2023/09/19 00:35:43;;;;;;;;;;;;;;;;;;6360208;27;19943;-72
2023/09/19 00:38:44;;;;;;;;;;;;;;;;;;6342909;27;19923;-72
2023/09/19 00:41:44;;;;;;;;;;;;;;;;;;6365736;27;20025;-72
2023/09/19 00:44:44;;;;;;;;;;;;;;;;;;6363344;27;19915;-72
2023/09/19 00:47:45;;;;;;;;;;;;;;;;;;6361824;27;19923;-72
2023/09/19 00:50:46;;;;;;;;;;;;;;;;;;6361783;27;19915;-72
2023/09/19 00:53:46;;;;;;;;;;;;;;;;;;6362042;27;19919;-72
2023/09/19 00:56:46;;;;;;;;;;;;;;;;;;6362578;27;20361;-73
2023/09/19 00:59:48;;;;;;;;;;;;;;;;;;6340123;27;20236;-72
2023/09/19 01:02:48;;;;;;;;;;;;;;;;;;6359408;27;20297;-72
2023/09/19 01:05:48;;;;;;;;;;;;;;;;;;6360340;27;20385;-73
2023/09/19 01:08:48;;;;;;;;;;;;;;;;;;6356668;27;19923;-73
2023/09/19 01:11:48;;;;;;;;;;;;;;;;;;6356729;27;20314;-73
2023/09/19 01:14:48;;;;;;;;;;;;;;;;;;6355465;27;19919;-73
2023/09/19 01:17:50;;;;;;;;;;;;;;;;;;6360043;27;19919;-73
2023/09/19 01:20:50;;;;;;;;;;;;;;;;;;6356275;27;19911;-73
2023/09/19 01:23:50;;;;;;;;;;;;;;;;;;6319797;28;20413;-73
2023/09/19 01:26:50;;;;;;;;;;;;;;;;;;6350167;27;19912;-71
2023/09/19 01:29:50;;;;;;;;;;;;;;;;;;6359156;27;19912;-69
2023/09/19 01:32:52;;;;;;;;;;;;;;;;;;6358818;27;20026;-69
2023/09/19 01:35:53;;;;;;;;;;;;;;;;;;6353336;27;19930;-70
2023/09/19 01:38:53;;;;;;;;;;;;;;;;;;6360015;27;20559;-69
2023/09/19 01:41:53;;;;;;;;;;;;;;;;;;6367436;27;19956;-69
2023/09/19 01:44:53;;;;;;;;;;;;;;;;;;6354757;27;20378;-68
2023/09/19 01:47:55;;;;;;;;;;;;;;;;;;6353779;27;20373;-68
2023/09/19 01:50:55;;;;;;;;;;;;;;;;;;6358382;27;19955;-69
2023/09/19 01:53:56;;;;;;;;;;;;;;;;;;6362018;27;19922;-70
2023/09/19 01:56:56;;;;;;;;;;;;;;;;;;6347460;27;20014;-70
2023/09/19 01:59:57;;;;;;;;;;;;;;;;;;6370081;27;20285;-69
2023/09/19 02:02:58;;;;;;;;;;;;;;;;;;6371893;27;19912;-69
2023/09/19 02:05:58;;;;;;;;;;;;;;;;;;6364184;27;19912;-69
2023/09/19 02:08:59;;;;;;;;;;;;;;;;;;6359362;27;19968;-69
2023/09/19 02:12:00;;;;;;;;;;;;;;;;;;6355456;27;19916;-68
2023/09/19 02:15:00;;;;;;;;;;;;;;;;;;6370557;27;19911;-68
2023/09/19 02:18:00;;;;;;;;;;;;;;;;;;6365500;27;19926;-68
2023/09/19 02:21:00;;;;;;;;;;;;;;;;;;6348226;27;19911;-68
2023/09/19 02:24:00;;;;;;;;;;;;;;;;;;6369791;27;20005;-69
2023/09/19 02:27:04;;;;;;;;;;;;;;;;;;6349527;27;19965;-68
2023/09/19 02:30:04;;;;;;;;;;;;;;;;;;6356634;27;19920;-69
2023/09/19 02:33:05;;;;;;;;;;;;;;;;;;6351354;27;19993;-69
2023/09/19 02:36:05;;;;;;;;;;;;;;;;;;6353827;27;19935;-69
2023/09/19 02:39:06;;;;;;;;;;;;;;;;;;6361331;27;19915;-69
2023/09/19 02:42:06;;;;;;;;;;;;;;;;;;6363837;27;19947;-69
2023/09/19 02:45:06;;;;;;;;;;;;;;;;;;6352034;27;20421;-69
2023/09/19 02:48:07;;;;;;;;;;;;;;;;;;6354839;27;20006;-69
2023/09/19 02:51:07;;;;;;;;;;;;;;;;;;6337652;28;19916;-69
2023/09/19 02:54:08;;;;;;;;;;;;;;;;;;6354781;27;19919;-69
2023/09/19 02:57:08;;;;;;;;;;;;;;;;;;6351333;27;19925;-69
2023/09/19 03:00:10;;;;;;;;;;;;;;;;;;6355286;28;19915;-69
2023/09/19 03:03:10;;;;;;;;;;;;;;;;;;6354928;28;19930;-70
2023/09/19 03:06:10;;;;;;;;;;;;;;;;;;6357256;28;19911;-69
2023/09/19 03:09:11;;;;;;;;;;;;;;;;;;6333936;28;19950;-69
2023/09/19 03:12:11;;;;;;;;;;;;;;;;;;6352402;28;20007;-69
2023/09/19 03:15:11;;;;;;;;;;;;;;;;;;6350074;28;19926;-69
2023/09/19 03:18:12;;;;;;;;;;;;;;;;;;6354482;28;20430;-70
2023/09/19 03:21:14;;;;;;;;;;;;;;;;;;6351234;28;20307;-68
2023/09/19 03:24:14;;;;;;;;;;;;;;;;;;6355183;28;19919;-69
2023/09/19 03:27:15;;;;;;;;;;;;;;;;;;6352571;28;20387;-68
2023/09/19 03:30:16;;;;;;;;;;;;;;;;;;6354852;28;19916;-69
2023/09/19 03:33:16;;;;;;;;;;;;;;;;;;6357231;28;19988;-68
2023/09/19 03:36:16;;;;;;;;;;;;;;;;;;6353720;28;20370;-68
2023/09/19 03:39:16;;;;;;;;;;;;;;;;;;6348806;28;20007;-68
2023/09/19 03:42:17;;;;;;;;;;;;;;;;;;6353749;28;19919;-68
2023/09/19 03:45:18;;;;;;;;;;;;;;;;;;6348185;28;19955;-69
2023/09/19 03:48:19;;;;;;;;;;;;;;;;;;6354383;27;19923;-70
2023/09/19 03:51:19;;;;;;;;;;;;;;;;;;6355594;27;19912;-70
2023/09/19 03:54:19;;;;;;;;;;;;;;;;;;6354742;27;20710;-70
2023/09/19 03:57:20;;;;;;;;;;;;;;;;;;6346973;27;19911;-70
2023/09/19 04:00:23;;;;;;;;;;;;;;;;;;6355900;27;19963;-70
2023/09/19 04:03:23;;;;;;;;;;;;;;;;;;6354367;27;20437;-70
2023/09/19 04:06:23;;;;;;;;;;;;;;;;;;6353884;27;19920;-70
2023/09/19 04:09:24;;;;;;;;;;;;;;;;;;6355813;27;20363;-70
2023/09/19 04:12:24;;;;;;;;;;;;;;;;;;6352852;27;19939;-71
2023/09/19 04:15:24;;;;;;;;;;;;;;;;;;6332415;27;20410;-71
2023/09/19 04:18:25;;;;;;;;;;;;;;;;;;6352141;27;19911;-71
2023/09/19 04:21:26;;;;;;;;;;;;;;;;;;6352934;27;19939;-70
2023/09/19 04:24:26;;;;;;;;;;;;;;;;;;6355336;27;20012;-71
2023/09/19 04:27:26;;;;;;;;;;;;;;;;;;6352946;27;19915;-70
2023/09/19 04:30:26;;;;;;;;;;;;;;;;;;6347041;27;19923;-70
2023/09/19 04:33:30;;;;;;;;;;;;;;;;;;6354546;27;19918;-70
2023/09/19 04:36:30;;;;;;;;;;;;;;;;;;6353354;27;19965;-70
2023/09/19 04:39:30;;;;;;;;;;;;;;;;;;6353200;27;19937;-70
2023/09/19 04:42:30;;;;;;;;;;;;;;;;;;6355159;27;19971;-69
2023/09/19 04:45:30;;;;;;;;;;;;;;;;;;6352348;27;19912;-69
2023/09/19 04:48:31;;;;;;;;;;;;;;;;;;6352987;27;20341;-69
2023/09/19 04:51:34;;;;;;;;;;;;;;;;;;6348935;27;20441;-70
2023/09/19 04:54:34;;;;;;;;;;;;;;;;;;6355944;27;20401;-70
2023/09/19 04:57:34;;;;;;;;;;;;;;;;;;6355527;27;19928;-70
2023/09/19 05:00:35;;;;;;;;;;;;;;;;;;6349004;27;19923;-70
2023/09/19 05:03:35;;;;;;;;;;;;;;;;;;6357599;27;20403;-71
2023/09/19 05:06:35;;;;;;;;;;;;;;;;;;6353502;27;19912;-71
2023/09/19 05:09:37;;;;;;;;;;;;;;;;;;6354197;27;20006;-71
2023/09/19 05:12:37;;;;;;;;;;;;;;;;;;6356418;27;20379;-70
2023/09/19 05:15:37;;;;;;;;;;;;;;;;;;6359483;27;19912;-70
2023/09/19 05:18:37;;;;;;;;;;;;;;;;;;6351504;27;19912;-69
2023/09/19 05:21:38;;;;;;;;;;;;;;;;;;6353131;27;19974;-68
2023/09/19 05:24:39;;;;;;;;;;;;;;;;;;6347227;27;20959;-68
2023/09/19 05:27:40;;;;;;;;;;;;;;;;;;6352459;27;19916;-69
2023/09/19 05:30:40;;;;;;;;;;;;;;;;;;6351800;27;20377;-68
2023/09/19 05:33:40;;;;;;;;;;;;;;;;;;6354584;27;19964;-68
2023/09/19 05:36:41;;;;;;;;;;;;;;;;;;6351586;27;19923;-70
2023/09/19 05:39:42;;;;;;;;;;;;;;;;;;6349626;27;19919;-70
2023/09/19 05:42:43;;;;;;;;;;;;;;;;;;6351184;27;19939;-69
2023/09/19 05:45:45;;;;;;;;;;;;;;;;;;6338240;27;19911;-75
2023/09/19 05:48:47;;;;;;;;;;;;;;;;;;6359038;27;19919;-68
2023/09/19 05:51:47;;;;;;;;;;;;;;;;;;6351771;27;19927;-69
2023/09/19 05:54:49;;;;;;;;;;;;;;;;;;6372201;27;19912;-69
2023/09/19 05:57:50;;;;;;;;;;;;;;;;;;6367928;27;19941;-68
2023/09/19 06:00:50;;;;;;;;;;;;;;;;;;6353592;27;20369;-68
2023/09/19 06:03:50;;;;;;;;;;;;;;;;;;6349010;27;19920;-67
2023/09/19 06:06:51;;;;;;;;;;;;;;;;;;6335069;27;19916;-68
2023/09/19 06:09:51;;;;;;;;;;;;;;;;;;6353796;27;19915;-68
2023/09/19 06:12:51;;;;;;;;;;;;;;;;;;6363846;27;19912;-68
2023/09/19 06:15:51;;;;;;;;;;;;;;;;;;6350165;27;19919;-69
2023/09/19 06:18:52;;;;;;;;;;;;;;;;;;6348877;27;19920;-70
2023/09/19 06:21:53;;;;;;;;;;;;;;;;;;6349781;27;19926;-70
2023/09/19 06:24:53;;;;;;;;;;;;;;;;;;6346607;27;20454;-69
2023/09/19 06:27:54;;;;;;;;;;;;;;;;;;6348837;27;20014;-69
2023/09/19 06:30:55;;;;;;;;;;;;;;;;;;6350979;27;19956;-72
2023/09/19 06:33:55;;;;;;;;;;;;;;;;;;6351738;27;20003;-69
2023/09/19 06:36:55;;;;;;;;;;;;;;;;;;6349301;27;20219;-69
2023/09/19 06:39:56;;;;;;;;;;;;;;;;;;6355271;27;19927;-68
2023/09/19 06:42:57;;;;;;;;;;;;;;;;;;6355845;27;20373;-70
2023/09/19 06:45:57;;;;;;;;;;;;;;;;;;6340783;27;19919;-69
2023/09/19 06:48:57;;;;;;;;;;;;;;;;;;6348323;27;20366;-72
2023/09/19 06:51:57;;;;;;;;;;;;;;;;;;6354215;27;19912;-71
2023/09/19 06:54:57;;;;;;;;;;;;;;;;;;6351292;27;19942;-71
2023/09/19 06:57:58;;;;;;;;;;;;;;;;;;6339871;28;20000;-70
2023/09/19 07:00:58;;;;;;;;;;;;;;;;;;6350625;28;19911;-69
2023/09/19 07:03:59;;;;;;;;;;;;;;;;;;6360376;28;19939;-68
2023/09/19 07:06:59;;;;;;;;;;;;;;;;;;6370333;28;19911;-69
2023/09/19 07:09:59;;;;;;;;;;;;;;;;;;6368571;28;19930;-69
2023/09/19 07:12:59;;;;;;;;;;;;;;;;;;6365481;28;19908;-69
2023/09/19 07:15:59;;;;;;;;;;;;;;;;;;6349968;28;19912;-69
2023/09/19 07:18:59;;;;;;;;;;;;;;;;;;6356069;28;20289;-70
2023/09/19 07:22:02;;;;;;;;;;;;;;;;;;6374323;27;19943;-69
2023/09/19 07:25:02;;;;;;;;;;;;;;;;;;6348471;27;19935;-69
2023/09/19 07:28:02;;;;;;;;;;;;;;;;;;6345195;27;19916;-71
2023/09/19 07:31:03;;;;;;;;;;;;;;;;;;6368745;27;20330;-70
2023/09/19 07:34:03;;;;;;;;;;;;;;;;;;6371207;27;19911;-69
2023/09/19 07:37:03;;;;;;;;;;;;;;;;;;6369965;27;19918;-69
2023/09/19 07:40:13;;;;;;;;;;;;;;;;;;6375920;27;19908;-70
2023/09/19 07:43:13;;;;;;;;;;;;;;;;;;6356465;27;20002;-69
2023/09/19 07:46:13;;;;;;;;;;;;;;;;;;6371629;27;19911;-69
2023/09/19 07:49:13;;;;;;;;;;;;;;;;;;6374103;27;20361;-69
2023/09/19 07:52:13;;;;;;;;;;;;;;;;;;6364378;27;19907;-69
2023/09/19 07:55:17;;;;;;;;;;;;;;;;;;6373925;27;19919;-70
2023/09/19 07:58:17;;;;;;;;;;;;;;;;;;6371838;27;19938;-70
2023/09/19 08:01:17;;;;;;;;;;;;;;;;;;6368068;27;19911;-70
2023/09/19 08:04:19;;;;;;;;;;;;;;;;;;6357877;27;19924;-70
2023/09/19 08:07:19;;;;;;;;;;;;;;;;;;6368753;27;19912;-69
2023/09/19 08:10:19;;;;;;;;;;;;;;;;;;6368402;27;19908;-71
2023/09/19 08:13:21;;;;;;;;;;;;;;;;;;6356045;27;20435;-72
2023/09/19 08:16:22;;;;;;;;;;;;;;;;;;6368516;27;19919;-72
2023/09/19 08:19:23;;;;;;;;;;;;;;;;;;6367168;27;19908;-72
2023/09/19 08:22:24;;;;;;;;;;;;;;;;;;6342533;27;19972;-72
2023/09/19 08:25:26;;;;;;;;;;;;;;;;;;6374670;27;19916;-72
2023/09/19 08:28:29;;;;;;;;;;;;;;;;;;6370887;27;19915;-71
2023/09/19 08:31:29;;;;;;;;;;;;;;;;;;6357939;27;19923;-71
2023/09/19 08:34:34;;;;;;;;;;;;;;;;;;6363253;27;19912;-72
2023/09/19 08:37:34;;;;;;;;;;;;;;;;;;6362903;27;19916;-72
2023/09/19 08:40:43;;;;;;;;;;;;;;;;;;6370701;27;20373;-72
2023/09/19 08:43:46;;;;;;;;;;;;;;;;;;6351738;27;20027;-72
2023/09/19 08:46:48;;;;;;;;;;;;;;;;;;6363255;27;19915;-72
2023/09/19 08:49:48;;;;;;;;;;;;;;;;;;6369433;27;19919;-73
2023/09/19 08:52:49;;;;;;;;;;;;;;;;;;6363088;27;20338;-72
2023/09/19 08:55:49;;;;;;;;;;;;;;;;;;6349996;27;19976;-72
2023/09/19 08:58:49;;;;;;;;;;;;;;;;;;6365884;27;19911;-73
2023/09/19 09:01:53;;;;;;;;;;;;;;;;;;6369976;27;20277;-73
2023/09/19 09:04:53;;;;;;;;;;;;;;;;;;6362443;27;19961;-72
2023/09/19 09:07:56;;;;;;;;;;;;;;;;;;6343495;27;19916;-72
2023/09/19 09:10:57;;;;;;;;;;;;;;;;;;6366781;27;19930;-72
2023/09/19 09:13:57;;;;;;;;;;;;;;;;;;6354243;27;19961;-73
2023/09/19 09:16:59;;;;;;;;;;;;;;;;;;6371129;27;19907;-73
2023/09/19 09:19:59;;;;;;;;;;;;;;;;;;6372238;27;19998;-73
2023/09/19 09:23:00;;;;;;;;;;;;;;;;;;6359018;27;20322;-73
2023/09/19 09:26:02;;;;;;;;;;;;;;;;;;6349276;27;19916;-72
2023/09/19 09:29:02;;;;;;;;;;;;;;;;;;6366775;27;20010;-73
2023/09/19 09:32:02;;;;;;;;;;;;;;;;;;6369484;27;19934;-73
2023/09/19 09:35:04;;;;;;;;;;;;;;;;;;6365335;27;20511;-74
2023/09/19 09:38:08;;;;;;;;;;;;;;;;;;6368869;27;19911;-74
2023/09/19 09:41:09;;;;;;;;;;;;;;;;;;6372423;27;19911;-74
2023/09/19 09:44:10;;;;;;;;;;;;;;;;;;6371005;27;19915;-75
2023/09/19 09:47:29;;;;;;;;;;;;;;;;;;6373840;27;19972;-75
2023/09/19 09:50:29;;;;;;;;;;;;;;;;;;6378731;27;19953;-75
2023/09/19 09:53:32;;;;;;;;;;;;;;;;;;6373839;27;19965;-75
2023/09/19 09:56:34;;;;;;;;;;;;;;;;;;6370376;27;20383;-75
2023/09/19 09:59:35;;;;;;;;;;;;;;;;;;6372406;27;19916;-75
2023/09/19 10:02:40;;;;;;;;;;;;;;;;;;6369380;27;19961;-75
2023/09/19 10:05:43;;;;;;;;;;;;;;;;;;6374033;27;19919;-75
2023/09/19 10:08:44;;;;;;;;;;;;;;;;;;6334929;28;19977;-75
2023/09/19 10:11:44;;;;;;;;;;;;;;;;;;6347792;28;19911;-74
2023/09/19 10:14:47;;;;;;;;;;;;;;;;;;6365880;27;19911;-75
2023/09/19 10:17:47;;;;;;;;;;;;;;;;;;6347821;27;19911;-75
2023/09/19 10:20:48;;;;;;;;;;;;;;;;;;6354777;27;20003;-75
2023/09/19 10:23:48;;;;;;;;;;;;;;;;;;6343129;27;20324;-75
2023/09/19 10:26:50;;;;;;;;;;;;;;;;;;6368856;27;20377;-74
2023/09/19 10:29:50;;;;;;;;;;;;;;;;;;6370444;27;19987;-75
2023/09/19 10:32:51;;;;;;;;;;;;;;;;;;6357672;27;20348;-75
2023/09/19 10:35:51;;;;;;;;;;;;;;;;;;6370294;27;19912;-74
2023/09/19 10:38:53;;;;;;;;;;;;;;;;;;6353215;27;19911;-74
2023/09/19 10:41:53;;;;;;;;;;;;;;;;;;6363769;27;20361;-74
2023/09/19 10:44:53;;;;;;;;;;;;;;;;;;6350209;27;19919;-74
2023/09/19 10:47:54;;;;;;;;;;;;;;;;;;6366115;27;19968;-74
2023/09/19 10:50:55;;;;;;;;;;;;;;;;;;6366804;27;20369;-75
2023/09/19 10:53:55;;;;;;;;;;;;;;;;;;6361461;27;19919;-75
2023/09/19 10:56:58;;;;;;;;;;;;;;;;;;6367396;27;19911;-75
2023/09/19 11:00:21;;;;;;;;;;;;;;;;;;6366225;27;20124;-75
2023/09/19 11:03:20;;;;;;;;;;;;;;;;;;6356037;28;20377;-74
2023/09/19 11:06:20;;;;;;;;;;;;;;;;;;6350617;28;19972;-75
2023/09/19 11:09:25;;;;;;;;;;;;;;;;;;6360460;28;19931;-75
2023/09/19 11:12:26;;;;;;;;;;;;;;;;;;6347817;28;19995;-75
2023/09/19 11:15:27;;;;;;;;;;;;;;;;;;6360116;28;19923;-75
2023/09/19 11:18:30;;;;;;;;;;;;;;;;;;6354877;28;19912;-75
2023/09/19 11:21:31;;;;;;;;;;;;;;;;;;6364655;28;20310;-75
2023/09/19 11:24:33;;;;;;;;;;;;;;;;;;6365848;28;19919;-75
2023/09/19 11:27:34;;;;;;;;;;;;;;;;;;6370217;28;20007;-75
2023/09/19 11:30:35;;;;;;;;;;;;;;;;;;6370141;28;19934;-75
2023/09/19 11:33:41;;;;;;;;;;;;;;;;;;6369588;28;19911;-73
2023/09/19 11:36:41;;;;;;;;;;;;;;;;;;6356434;28;20373;-74
2023/09/19 11:39:43;;;;;;;;;;;;;;;;;;6351475;28;19952;-75
2023/09/19 11:42:44;;;;;;;;;;;;;;;;;;6370796;28;19980;-75
2023/09/19 11:45:49;;;;;;;;;;;;;;;;;;6370437;28;19994;-75
2023/09/19 11:48:49;;;;;;;;;;;;;;;;;;6001086;28;9999812;-76
2023/09/19 11:51:51;;;;;;;;;;;;;;;;;;6351430;28;20063;-75
2023/09/19 11:54:52;;;;;;;;;;;;;;;;;;6371130;28;19907;-75
2023/09/19 11:57:52;;;;;;;;;;;;;;;;;;6371742;28;19939;-75
2023/09/19 12:00:53;;;;;;;;;;;;;;;;;;6370646;28;19914;-75
2023/09/19 12:03:53;;;;;;;;;;;;;;;;;;6369713;28;20369;-74
2023/09/19 12:06:56;;;;;;;;;;;;;;;;;;6369369;27;19927;-74
2023/09/19 12:09:57;;;;;;;;;;;;;;;;;;6374890;27;19992;-75
2023/09/19 12:12:59;;;;;;;;;;;;;;;;;;6375432;27;19911;-75
2023/09/19 12:16:00;;;;;;;;;;;;;;;;;;6374510;27;20381;-74
2023/09/19 12:19:00;;;;;;;;;;;;;;;;;;6374303;27;20069;-75
2023/09/19 12:22:09;;;;;;;;;;;;;;;;;;6374338;27;19926;-75
2023/09/19 12:25:21;;;;;;;;;;;;;;;;;;6370981;27;20359;-74
2023/09/19 12:28:21;;;;;;;;;;;;;;;;;;6374614;27;19911;-75
2023/09/19 12:31:22;;;;;;;;;;;;;;;;;;6373323;27;19911;-74
2023/09/19 12:34:22;;;;;;;;;;;;;;;;;;6373993;27;19972;-74
2023/09/19 12:37:27;;;;;;;;;;;;;;;;;;6374076;27;19921;-74
2023/09/19 12:40:28;;;;;;;;;;;;;;;;;;6374823;27;20090;-75
2023/09/19 12:43:28;;;;;;;;;;;;;;;;;;6354777;27;19911;-75
2023/09/19 12:46:28;;;;;;;;;;;;;;;;;;6373627;27;19908;-76
2023/09/19 12:49:28;;;;;;;;;;;;;;;;;;6373896;27;19919;-76
2023/09/19 12:52:28;;;;;;;;;;;;;;;;;;6360674;27;19953;-76
2023/09/19 12:55:28;;;;;;;;;;;;;;;;;;6367980;27;19983;-76
2023/09/19 12:58:30;;;;;;;;;;;;;;;;;;6373524;27;19919;-76
2023/09/19 13:01:31;;;;;;;;;;;;;;;;;;6354707;27;19960;-76
2023/09/19 13:04:33;;;;;;;;;;;;;;;;;;6373747;27;20250;-75
2023/09/19 13:07:35;;;;;;;;;;;;;;;;;;6372760;27;20229;-76
2023/09/19 13:10:36;;;;;;;;;;;;;;;;;;6373383;27;19995;-75
2023/09/19 13:13:37;;;;;;;;;;;;;;;;;;6372901;27;19931;-77
2023/09/19 13:16:37;;;;;;;;;;;;;;;;;;6372356;27;19914;-77
2023/09/19 13:19:37;;;;;;;;;;;;;;;;;;6358160;27;20041;-76
2023/09/19 13:22:42;;;;;;;;;;;;;;;;;;6347175;27;19991;-77
2023/09/19 13:25:44;;;;;;;;;;;;;;;;;;6371744;27;19916;-76
2023/09/19 13:28:47;;;;;;;;;;;;;;;;;;6361573;27;19976;-76
2023/09/19 13:31:48;;;;;;;;;;;;;;;;;;6371081;27;19915;-76
2023/09/19 13:34:48;;;;;;;;;;;;;;;;;;6373811;27;20388;-76
2023/09/19 13:37:51;;;;;;;;;;;;;;;;;;6371388;27;19912;-75
2023/09/19 13:40:52;;;;;;;;;;;;;;;;;;6354297;27;20010;-76
2023/09/19 13:43:53;;;;;;;;;;;;;;;;;;6372888;27;20007;-76
2023/09/19 13:46:55;;;;;;;;;;;;;;;;;;6370783;27;19912;-76
2023/09/19 13:49:55;;;;;;;;;;;;;;;;;;6372325;27;19918;-76
2023/09/19 13:52:56;;;;;;;;;;;;;;;;;;6355255;27;19908;-76
2023/09/19 13:55:56;;;;;;;;;;;;;;;;;;6345641;28;19961;-76
2023/09/19 13:58:56;;;;;;;;;;;;;;;;;;6347254;28;19915;-76
2023/09/19 14:01:57;;;;;;;;;;;;;;;;;;6351530;27;19911;-76
2023/09/19 14:04:57;;;;;;;;;;;;;;;;;;6372095;27;19926;-77
2023/09/19 14:07:59;;;;;;;;;;;;;;;;;;6372477;27;19911;-76
2023/09/19 14:10:59;;;;;;;;;;;;;;;;;;6372170;27;20380;-75
2023/09/19 14:14:00;;;;;;;;;;;;;;;;;;6372213;27;20413;-76
2023/09/19 14:17:00;;;;;;;;;;;;;;;;;;6371443;27;19911;-75
2023/09/19 14:20:00;;;;;;;;;;;;;;;;;;6369813;27;19964;-76
2023/09/19 14:23:01;;;;;;;;;;;;;;;;;;6365418;27;20027;-76
2023/09/19 14:26:01;;;;;;;;;;;;;;;;;;6348836;27;20401;-75
2023/09/19 14:29:02;;;;;;;;;;;;;;;;;;6368597;27;20060;-74
2023/09/19 14:32:02;;;;;;;;;;;;;;;;;;6364410;27;19921;-75
2023/09/19 14:35:02;;;;;;;;;;;;;;;;;;6347127;27;19969;-75
2023/09/19 14:38:02;;;;;;;;;;;;;;;;;;6385903;27;20366;-76
2023/09/19 14:41:03;;;;;;;;;;;;;;;;;;6395191;27;19922;-75
2023/09/19 14:44:04;;;;;;;;;;;;;;;;;;6363942;27;19916;-76
2023/09/19 14:47:05;;;;;;;;;;;;;;;;;;6357836;27;19997;-76
2023/09/19 14:50:06;;;;;;;;;;;;;;;;;;6370734;27;20285;-76
2023/09/19 14:53:10;;;;;;;;;;;;;;;;;;6368120;27;19919;-74
2023/09/19 14:56:11;;;;;;;;;;;;;;;;;;6366297;27;20002;-76
2023/09/19 14:59:11;;;;;;;;;;;;;;;;;;6340115;27;19971;-77
2023/09/19 15:02:11;;;;;;;;;;;;;;;;;;6367990;27;19911;-77
2023/09/19 15:05:11;;;;;;;;;;;;;;;;;;6356129;28;19973;-78
2023/09/19 15:08:12;;;;;;;;;;;;;;;;;;6341233;28;19923;-77
2023/09/19 15:11:12;;;;;;;;;;;;;;;;;;6367880;28;19920;-78
2023/09/19 15:14:13;;;;;;;;;;;;;;;;;;6365802;28;20001;-78
2023/09/19 15:17:14;;;;;;;;;;;;;;;;;;6342051;28;20024;-78
2023/09/19 15:20:14;;;;;;;;;;;;;;;;;;6373175;28;19994;-77
2023/09/19 15:23:16;;;;;;;;;;;;;;;;;;6381567;28;19948;-78
2023/09/19 15:26:20;;;;;;;;;;;;;;;;;;6364521;28;19963;-78
2023/09/19 15:29:20;;;;;;;;;;;;;;;;;;6368957;28;19915;-78
2023/09/19 15:32:20;;;;;;;;;;;;;;;;;;6365435;28;19939;-79
2023/09/19 15:35:21;;;;;;;;;;;;;;;;;;6340321;28;20358;-79
2023/09/19 15:38:22;;;;;;;;;;;;;;;;;;6370548;28;19918;-78
2023/09/19 15:41:22;;;;;;;;;;;;;;;;;;6366536;28;19919;-78
2023/09/19 15:44:26;;;;;;;;;;;;;;;;;;6374349;27;19911;-77
2023/09/19 15:47:27;;;;;;;;;;;;;;;;;;6369883;27;20385;-77
2023/09/19 15:50:27;;;;;;;;;;;;;;;;;;6343164;28;19918;-77
2023/09/19 15:53:27;;;;;;;;;;;;;;;;;;6369891;27;19923;-77
2023/09/19 15:56:27;;;;;;;;;;;;;;;;;;6380695;27;19912;-78
2023/09/19 15:59:28;;;;;;;;;;;;;;;;;;6378777;27;20392;-78
2023/09/19 16:02:28;;;;;;;;;;;;;;;;;;6372454;27;19912;-78
2023/09/19 16:05:28;;;;;;;;;;;;;;;;;;6313931;28;19924;-77
2023/09/19 16:08:28;;;;;;;;;;;;;;;;;;6321852;28;20358;-78
2023/09/19 16:11:30;;;;;;;;;;;;;;;;;;6314455;28;19962;-78
2023/09/19 16:14:33;;;;;;;;;;;;;;;;;;6310574;28;19995;-79
2023/09/19 16:17:34;;;;;;;;;;;;;;;;;;6307011;28;19918;-79
2023/09/19 16:20:34;;;;;;;;;;;;;;;;;;6311339;28;19974;-79
2023/09/19 16:23:35;;;;;;;;;;;;;;;;;;6319295;28;19916;-79
2023/09/19 16:26:35;;;;;;;;;;;;;;;;;;6296726;28;19912;-80
2023/09/19 16:29:35;;;;;;;;;;;;;;;;;;6289660;28;20457;-79
2023/09/19 16:32:36;;;;;;;;;;;;;;;;;;6305061;28;20216;-79
2023/09/19 16:35:36;;;;;;;;;;;;;;;;;;6295004;28;19948;-79
2023/09/19 16:38:37;;;;;;;;;;;;;;;;;;6305699;28;19916;-80
2023/09/19 16:41:37;;;;;;;;;;;;;;;;;;6303233;28;22991;-80
2023/09/19 16:44:37;;;;;;;;;;;;;;;;;;6308392;28;20416;-80
2023/09/19 16:47:37;;;;;;;;;;;;;;;;;;6297775;28;19923;-80
2023/09/19 16:50:38;;;;;;;;;;;;;;;;;;6295560;28;19999;-81
2023/09/19 16:53:38;;;;;;;;;;;;;;;;;;6304487;28;19971;-80
2023/09/19 16:56:38;;;;;;;;;;;;;;;;;;6289417;28;19912;-74
2023/09/19 16:59:38;;;;;;;;;;;;;;;;;;6305474;28;20000;-75
2023/09/19 17:02:39;;;;;;;;;;;;;;;;;;6305356;28;19913;-72
2023/09/19 17:05:40;;;;;;;;;;;;;;;;;;6333769;28;19997;-72
2023/09/19 17:08:40;;;;;;;;;;;;;;;;;;6346997;28;20382;-72
2023/09/19 17:11:40;;;;;;;;;;;;;;;;;;6347024;28;19935;-73
2023/09/19 17:14:40;;;;;;;;;;;;;;;;;;6328253;28;19957;-70
2023/09/19 17:17:41;;;;;;;;;;;;;;;;;;6347875;28;19971;-71
2023/09/19 17:20:41;;;;;;;;;;;;;;;;;;6340855;28;19911;-75
2023/09/19 17:23:42;;;;;;;;;;;;;;;;;;6343134;28;19934;-74
2023/09/19 17:26:42;;;;;;;;;;;;;;;;;;6343527;28;20015;-72
2023/09/19 17:29:43;;;;;;;;;;;;;;;;;;6320705;28;20407;-73
2023/09/19 17:32:43;;;;;;;;;;;;;;;;;;6327082;28;20306;-72
2023/09/19 17:35:43;;;;;;;;;;;;;;;;;;6331925;28;19924;-74
2023/09/19 17:38:43;;;;;;;;;;;;;;;;;;6341240;28;19972;-73
2023/09/19 17:41:44;;;;;;;;;;;;;;;;;;6325565;28;19934;-73
2023/09/19 17:44:44;;;;;;;;;;;;;;;;;;6348565;28;21495;-73
2023/09/19 17:47:44;;;;;;;;;;;;;;;;;;6328934;28;19923;-73
2023/09/19 17:50:44;;;;;;;;;;;;;;;;;;5971436;28;9999961;-73
2023/09/19 17:53:44;;;;;;;;;;;;;;;;;;6326749;28;20259;-74
2023/09/19 17:56:44;;;;;;;;;;;;;;;;;;6342184;28;19998;-75
2023/09/19 17:59:45;;;;;;;;;;;;;;;;;;6340289;28;19916;-75
2023/09/19 18:02:45;;;;;;;;;;;;;;;;;;6328950;28;20015;-73
2023/09/19 18:05:47;;;;;;;;;;;;;;;;;;6325969;28;19981;-76
2023/09/19 18:08:47;;;;;;;;;;;;;;;;;;6331499;28;19924;-75
2023/09/19 18:11:48;;;;;;;;;;;;;;;;;;6335496;28;19991;-75
2023/09/19 18:14:48;;;;;;;;;;;;;;;;;;6341286;28;19920;-76
2023/09/19 18:17:49;;;;;;;;;;;;;;;;;;6331233;28;20011;-76
2023/09/19 18:20:50;;;;;;;;;;;;;;;;;;6320355;28;20326;-76
2023/09/19 18:23:50;;;;;;;;;;;;;;;;;;6343436;28;19912;-76
2023/09/19 18:26:50;;;;;;;;;;;;;;;;;;6341758;28;20429;-77
2023/09/19 18:29:52;;;;;;;;;;;;;;;;;;6340389;28;19916;-76
2023/09/19 18:32:52;;;;;;;;;;;;;;;;;;6342992;28;20366;-75
2023/09/19 18:35:52;;;;;;;;;;;;;;;;;;6335149;28;19981;-76
2023/09/19 18:38:52;;;;;;;;;;;;;;;;;;6328427;28;19916;-76
2023/09/19 18:41:52;;;;;;;;;;;;;;;;;;6333554;28;20014;-76
2023/09/19 18:44:52;;;;;;;;;;;;;;;;;;6331333;28;20389;-77
2023/09/19 18:47:53;;;;;;;;;;;;;;;;;;6317036;28;20012;-76
2023/09/19 18:50:53;;;;;;;;;;;;;;;;;;6333146;28;19955;-75
2023/09/19 18:53:53;;;;;;;;;;;;;;;;;;6328126;28;19912;-76
2023/09/19 18:56:54;;;;;;;;;;;;;;;;;;6315925;28;19916;-75
2023/09/19 18:59:54;;;;;;;;;;;;;;;;;;6342897;28;19911;-76
2023/09/19 19:02:54;;;;;;;;;;;;;;;;;;6341870;28;19991;-75
2023/09/19 19:05:54;;;;;;;;;;;;;;;;;;6341643;28;19989;-76
2023/09/19 19:08:54;;;;;;;;;;;;;;;;;;6342493;28;19916;-75
2023/09/19 19:11:54;;;;;;;;;;;;;;;;;;6342447;28;20639;-76
2023/09/19 19:14:54;;;;;;;;;;;;;;;;;;6335774;28;19973;-76
2023/09/19 19:17:57;;;;;;;;;;;;;;;;;;6329756;28;19970;-76
2023/09/19 19:20:57;;;;;;;;;;;;;;;;;;6338448;28;20301;-75
2023/09/19 19:23:57;;;;;;;;;;;;;;;;;;6340669;28;20003;-81
2023/09/19 19:26:58;;;;;;;;;;;;;;;;;;6338202;28;19973;-83
2023/09/19 19:29:58;;;;;;;;;;;;;;;;;;6337788;28;20377;-81
2023/09/19 19:32:58;;;;;;;;;;;;;;;;;;6339230;28;20250;-81
2023/09/19 19:35:58;;;;;;;;;;;;;;;;;;6327519;28;19923;-80
2023/09/19 19:38:59;;;;;;;;;;;;;;;;;;6326949;28;20266;-80
2023/09/19 19:41:59;;;;;;;;;;;;;;;;;;6330144;28;19911;-80
2023/09/19 19:45:00;;;;;;;;;;;;;;;;;;6337625;28;19912;-80
2023/09/19 19:48:00;;;;;;;;;;;;;;;;;;6343081;28;19965;-81
2023/09/19 19:51:00;;;;;;;;;;;;;;;;;;6329680;28;19999;-79
2023/09/19 19:54:01;;;;;;;;;;;;;;;;;;6319576;28;19920;-80
2023/09/19 19:57:01;;;;;;;;;;;;;;;;;;6334521;28;19955;-80
2023/09/19 20:00:01;;;;;;;;;;;;;;;;;;6346225;28;20039;-81
2023/09/19 20:03:01;;;;;;;;;;;;;;;;;;6336463;28;19911;-81
2023/09/19 20:06:02;;;;;;;;;;;;;;;;;;6331827;27;19943;-81
2023/09/19 20:09:05;;;;;;;;;;;;;;;;;;6315524;28;19955;-80
2023/09/19 20:12:05;;;;;;;;;;;;;;;;;;6337792;28;20707;-80
2023/09/19 20:15:05;;;;;;;;;;;;;;;;;;6331368;28;19920;-80
2023/09/19 20:18:07;;;;;;;;;;;;;;;;;;6328078;28;19916;-71
2023/09/19 20:21:10;;;;;;;;;;;;;;;;;;6327308;28;19920;-71
2023/09/19 20:24:13;;;;;;;;;;;;;;;;;;6328454;27;19915;-70
2023/09/19 20:27:13;;;;;;;;;;;;;;;;;;6326185;28;20013;-70
2023/09/19 20:30:14;;;;;;;;;;;;;;;;;;6309344;28;19920;-71
2023/09/19 20:33:14;;;;;;;;;;;;;;;;;;6329042;28;19915;-71
2023/09/19 20:36:14;;;;;;;;;;;;;;;;;;6329165;28;19919;-70